Time;durP1;ratioP1;P1;durP2;ratioP2;P2;SDS_P1;SDS_P2;PMS_P1;PMS_P2;Temp;Humidity;BMP_temperature;BMP_pressure;BME280_temperature;BME280_humidity;BME280_pressure;Samples;Min_cycle;Max_cycle;Signal;HPM_P1;HPM_P2
2023/06/02 00:02:14;;;;;;;;;;;;;;;8.81;87.91;101867.53;5071243;28;19925;-78
2023/06/02 00:04:40;;;;;;;;;;;;;;;8.90;87.54;101866.16;5050953;28;19921;-78
2023/06/02 00:07:07;;;;;;;;;;;;;;;9.01;87.54;101870.69;5050226;28;19996;-76
2023/06/02 00:09:37;;;;;;;;;;;;;;;9.04;87.47;101874.75;5021261;28;19964;-76
2023/06/02 00:12:02;;;;;;;;;;;;;;;9.13;87.31;101872.53;5068672;28;19999;-76
2023/06/02 00:14:28;;;;;;;;;;;;;;;8.95;87.80;101879.63;5065182;28;19956;-76
2023/06/02 00:16:57;;;;;;;;;;;;;;;8.89;88.18;101877.88;5053925;28;19939;-77
2023/06/02 00:19:23;;;;;;;;;;;;;;;8.91;88.43;101872.31;5055450;28;19975;-77
2023/06/02 00:21:49;;;;;;;;;;;;;;;8.90;88.19;101871.50;5082740;28;19992;-77
2023/06/02 00:24:15;;;;;;;;;;;;;;;8.91;88.59;101873.13;5086300;28;19981;-78
2023/06/02 00:26:40;;;;;;;;;;;;;;;9.15;87.84;101859.78;5059549;28;19982;-77
2023/06/02 00:29:05;;;;;;;;;;;;;;;9.01;88.04;101873.38;5043977;28;19917;-77
2023/06/02 00:31:31;;;;;;;;;;;;;;;8.99;88.36;101859.41;5096185;28;19931;-76
2023/06/02 00:33:56;;;;;;;;;;;;;;;9.06;88.28;101859.28;5071389;28;19921;-77
2023/06/02 00:36:22;;;;;;;;;;;;;;;9.04;88.44;101861.41;5072952;28;19928;-78
2023/06/02 00:38:48;;;;;;;;;;;;;;;9.02;88.32;101858.16;5040867;28;20373;-77
2023/06/02 00:41:13;;;;;;;;;;;;;;;8.99;88.72;101856.72;5053836;28;19920;-78
2023/06/02 00:43:39;;;;;;;;;;;;;;;9.11;88.61;101854.06;5087462;28;20578;-79
2023/06/02 00:46:04;;;;;;;;;;;;;;;9.17;88.55;101857.69;5037542;28;20278;-77
2023/06/02 00:48:30;;;;;;;;;;;;;;;9.19;88.65;101860.94;5039036;28;19927;-76
2023/06/02 00:50:56;;;;;;;;;;;;;;;9.27;88.06;101857.91;5056937;28;20317;-76
2023/06/02 00:53:21;;;;;;;;;;;;;;;9.29;87.86;101859.31;5055227;28;19927;-78
2023/06/02 00:55:46;;;;;;;;;;;;;;;9.22;88.44;101868.50;5089235;28;19921;-76
2023/06/02 00:58:16;;;;;;;;;;;;;;;9.27;88.35;101866.72;5055523;28;20012;-77
2023/06/02 01:00:42;;;;;;;;;;;;;;;9.25;88.28;101868.81;5071324;28;19920;-79
2023/06/02 01:03:08;;;;;;;;;;;;;;;9.16;89.19;101866.75;5056082;28;20336;-76
2023/06/02 01:05:36;;;;;;;;;;;;;;;9.03;89.60;101876.63;5053540;28;19928;-77
2023/06/02 01:08:03;;;;;;;;;;;;;;;8.93;89.72;101868.34;5056833;28;19917;-79
2023/06/02 01:10:29;;;;;;;;;;;;;;;8.99;89.79;101871.97;5089291;28;19924;-78
2023/06/02 01:12:55;;;;;;;;;;;;;;;9.01;89.97;101873.38;5054861;28;19921;-78
2023/06/02 01:15:21;;;;;;;;;;;;;;;8.85;90.60;101882.03;5072732;28;19926;-79
2023/06/02 01:17:47;;;;;;;;;;;;;;;8.93;90.64;101876.34;5052456;28;20519;-78
2023/06/02 01:20:14;;;;;;;;;;;;;;;9.13;90.46;101869.88;5047080;22;20338;-75
2023/06/02 01:23:01;;;;;;;;;;;;;;;9.19;90.35;101871.63;4988321;28;19991;-75
2023/06/02 01:25:28;;;;;;;;;;;;;;;9.22;89.98;101873.84;4985972;28;19945;-74
2023/06/02 01:27:56;;;;;;;;;;;;;;;9.08;90.27;101877.75;4975036;28;20538;-76
2023/06/02 01:30:23;;;;;;;;;;;;;;;8.96;90.69;101878.59;5002759;28;19922;-74
2023/06/02 01:33:01;;;;;;;;;;;;;;;8.98;90.66;101873.81;4970215;28;20397;-75
2023/06/02 01:35:30;;;;;;;;;;;;;;;8.92;91.12;101874.72;4987171;28;20294;-76
2023/06/02 01:37:58;;;;;;;;;;;;;;;9.03;90.87;101871.28;4986506;28;19922;-76
2023/06/02 01:40:25;;;;;;;;;;;;;;;8.86;91.25;101872.16;4991854;28;19976;-75
2023/06/02 01:42:51;;;;;;;;;;;;;;;8.91;91.65;101878.47;4970924;28;19976;-74
2023/06/02 01:45:18;;;;;;;;;;;;;;;9.07;91.49;101865.44;4971300;28;19918;-75
2023/06/02 01:47:44;;;;;;;;;;;;;;;8.95;91.55;101863.59;4982001;28;19922;-75
2023/06/02 01:50:10;;;;;;;;;;;;;;;9.00;91.90;101870.91;4967728;28;20290;-74
2023/06/02 01:52:35;;;;;;;;;;;;;;;8.79;91.72;101876.81;4987827;28;19918;-74
2023/06/02 01:55:01;;;;;;;;;;;;;;;8.89;92.01;101872.53;4989256;28;19922;-74
2023/06/02 01:57:27;;;;;;;;;;;;;;;8.88;91.72;101876.25;4967297;28;20005;-74
2023/06/02 01:59:53;;;;;;;;;;;;;;;8.77;92.29;101877.03;4968274;28;20008;-75
2023/06/02 02:02:21;;;;;;;;;;;;;;;8.67;92.28;101876.78;4970876;28;20052;-75
2023/06/02 02:04:47;;;;;;;;;;;;;;;8.56;92.50;101885.59;4970098;28;19934;-74
2023/06/02 02:07:12;;;;;;;;;;;;;;;8.55;92.32;101882.09;4967663;28;19926;-74
2023/06/02 02:09:38;;;;;;;;;;;;;;;8.56;93.07;101880.25;4973525;28;19918;-75
2023/06/02 02:12:05;;;;;;;;;;;;;;;8.46;92.87;101876.25;4968280;28;19945;-74
2023/06/02 02:14:30;;;;;;;;;;;;;;;8.29;93.13;101880.59;5007209;28;19933;-75
2023/06/02 02:17:00;;;;;;;;;;;;;;;8.45;94.00;101876.50;5001954;28;19918;-75
2023/06/02 02:19:31;;;;;;;;;;;;;;;8.38;94.10;101868.56;4971232;28;19928;-76
2023/06/02 02:21:59;;;;;;;;;;;;;;;8.35;93.88;101873.53;5005613;28;19922;-75
2023/06/02 02:24:25;;;;;;;;;;;;;;;8.42;94.30;101872.44;4984316;28;19964;-75
2023/06/02 02:26:51;;;;;;;;;;;;;;;8.37;93.77;101884.81;4971636;28;20490;-76
2023/06/02 02:29:16;;;;;;;;;;;;;;;8.35;94.27;101879.72;4985687;28;19964;-75
2023/06/02 02:31:42;;;;;;;;;;;;;;;8.31;94.02;101877.69;4967845;28;20295;-76
2023/06/02 02:34:08;;;;;;;;;;;;;;;8.20;94.16;101873.97;4970578;28;20446;-76
2023/06/02 02:36:36;;;;;;;;;;;;;;;8.25;94.51;101881.25;4984224;28;20515;-74
2023/06/02 02:39:03;;;;;;;;;;;;;;;8.28;94.71;101878.16;4972938;28;19922;-74
2023/06/02 02:41:28;;;;;;;;;;;;;;;8.35;94.83;101879.72;4984819;28;19922;-74
2023/06/02 02:43:54;;;;;;;;;;;;;;;8.59;95.18;101885.94;4955130;28;19929;-75
2023/06/02 02:46:19;;;;;;;;;;;;;;;8.34;95.02;101888.75;4986176;28;20346;-75
2023/06/02 02:48:45;;;;;;;;;;;;;;;8.21;94.66;101883.59;4971775;28;19953;-74
2023/06/02 02:51:10;;;;;;;;;;;;;;;8.07;94.90;101882.13;4983499;28;19926;-75
2023/06/02 02:53:36;;;;;;;;;;;;;;;8.10;94.93;101881.66;4972862;28;20686;-74
2023/06/02 02:56:02;;;;;;;;;;;;;;;8.13;95.27;101890.06;4986698;28;19925;-74
2023/06/02 02:58:28;;;;;;;;;;;;;;;8.02;95.10;101885.47;5002319;28;19921;-75
2023/06/02 03:00:55;;;;;;;;;;;;;;;8.20;95.51;101890.78;4969893;28;20051;-75
2023/06/02 03:03:21;;;;;;;;;;;;;;;8.04;95.32;101887.91;4951141;28;19980;-75
2023/06/02 03:05:49;;;;;;;;;;;;;;;8.05;95.63;101889.53;4985030;28;19922;-75
2023/06/02 03:08:17;;;;;;;;;;;;;;;8.05;95.59;101892.19;5001215;28;19972;-74
2023/06/02 03:10:44;;;;;;;;;;;;;;;8.08;95.37;101894.44;4965692;28;19918;-74
2023/06/02 03:13:11;;;;;;;;;;;;;;;8.03;95.61;101896.94;4986313;28;20038;-75
2023/06/02 03:15:37;;;;;;;;;;;;;;;7.94;95.77;101891.09;4985148;28;19961;-75
2023/06/02 03:18:03;;;;;;;;;;;;;;;8.19;95.67;101902.47;5000675;28;19950;-74
2023/06/02 03:20:29;;;;;;;;;;;;;;;8.16;95.32;101904.78;5005753;28;20009;-75
2023/06/02 03:22:55;;;;;;;;;;;;;;;8.15;95.53;101900.50;4969789;28;20457;-74
2023/06/02 03:25:21;;;;;;;;;;;;;;;8.15;95.53;101900.50;4985425;28;19949;-74
2023/06/02 03:27:50;;;;;;;;;;;;;;;8.18;95.65;101913.38;4991164;28;19922;-73
2023/06/02 03:30:16;;;;;;;;;;;;;;;8.12;95.40;101907.06;4989978;28;19922;-73
2023/06/02 03:32:41;;;;;;;;;;;;;;;8.13;95.57;101908.72;4969169;28;20288;-75
2023/06/02 03:35:08;;;;;;;;;;;;;;;8.27;95.49;101909.38;4970584;28;19926;-72
2023/06/02 03:37:37;;;;;;;;;;;;;;;8.19;95.58;101912.31;4969190;28;20057;-75
2023/06/02 03:40:04;;;;;;;;;;;;;;;8.24;95.54;101909.81;4949098;28;20042;-75
2023/06/02 03:42:30;;;;;;;;;;;;;;;8.30;95.19;101916.91;4997578;28;19938;-73
2023/06/02 03:44:56;;;;;;;;;;;;;;;8.38;94.98;101918.47;4986567;28;19971;-76
2023/06/02 03:47:21;;;;;;;;;;;;;;;8.38;94.84;101921.16;4964187;28;20386;-76
2023/06/02 03:49:48;;;;;;;;;;;;;;;8.52;94.67;101924.44;4984676;28;20016;-74
2023/06/02 03:52:13;;;;;;;;;;;;;;;8.56;94.93;101922.97;4980622;28;19922;-74
2023/06/02 03:54:41;;;;;;;;;;;;;;;8.58;95.18;101918.22;4969655;28;19933;-74
2023/06/02 03:57:07;;;;;;;;;;;;;;;8.62;94.87;101932.75;5001464;28;19933;-74
2023/06/02 03:59:33;;;;;;;;;;;;;;;8.62;94.62;101925.56;4986025;28;19922;-74
2023/06/02 04:01:58;;;;;;;;;;;;;;;8.69;94.90;101928.13;4963880;28;20004;-75
2023/06/02 04:04:27;;;;;;;;;;;;;;;8.72;94.61;101927.66;5003253;28;19980;-75
2023/06/02 04:06:53;;;;;;;;;;;;;;;8.73;94.40;101934.63;4967875;28;20013;-76
2023/06/02 04:09:19;;;;;;;;;;;;;;;8.65;94.88;101937.63;4983236;28;19992;-74
2023/06/02 04:11:46;;;;;;;;;;;;;;;8.87;94.57;101932.56;4998464;28;19976;-73
2023/06/02 04:14:12;;;;;;;;;;;;;;;9.00;93.79;101927.81;4969766;28;19926;-75
2023/06/02 04:16:39;;;;;;;;;;;;;;;9.09;93.37;101939.00;4970041;28;19922;-74
2023/06/02 04:19:06;;;;;;;;;;;;;;;9.03;94.14;101937.25;4982771;28;19922;-74
2023/06/02 04:21:32;;;;;;;;;;;;;;;9.16;93.40;101939.72;4986549;28;20017;-75
2023/06/02 04:23:58;;;;;;;;;;;;;;;9.17;93.20;101937.88;4986126;28;20039;-75
2023/06/02 04:26:23;;;;;;;;;;;;;;;9.28;92.64;101945.09;5006846;28;19928;-74
2023/06/02 04:28:49;;;;;;;;;;;;;;;9.43;91.52;101944.63;4958482;28;19926;-75
2023/06/02 04:31:26;;;;;;;;;;;;;;;9.44;91.43;101946.25;5001139;28;19944;-76
2023/06/02 04:33:55;;;;;;;;;;;;;;;9.52;91.05;101949.38;4981266;28;19984;-75
2023/06/02 04:36:21;;;;;;;;;;;;;;;9.52;91.59;101943.22;4968998;28;20382;-75
2023/06/02 04:38:48;;;;;;;;;;;;;;;9.60;91.43;101942.03;4967061;28;19926;-74
2023/06/02 04:41:14;;;;;;;;;;;;;;;9.76;89.93;101949.38;4984286;28;19926;-73
2023/06/02 04:43:42;;;;;;;;;;;;;;;9.93;88.64;101944.91;4964332;28;19933;-74
2023/06/02 04:46:10;;;;;;;;;;;;;;;9.93;89.11;101942.25;4984610;28;19922;-74
2023/06/02 04:48:37;;;;;;;;;;;;;;;9.95;88.94;101942.00;5005519;28;19921;-73
2023/06/02 04:51:05;;;;;;;;;;;;;;;10.01;88.73;101947.22;5002803;28;19921;-76
2023/06/02 04:53:31;;;;;;;;;;;;;;;10.09;87.84;101946.03;4981359;28;20034;-75
2023/06/02 04:55:58;;;;;;;;;;;;;;;10.21;87.46;101938.78;4998497;28;20004;-76
2023/06/02 04:58:24;;;;;;;;;;;;;;;10.26;86.83;101938.94;5000148;28;19929;-76
2023/06/02 05:00:51;;;;;;;;;;;;;;;10.31;86.56;101946.25;4970272;28;19980;-74
2023/06/02 05:03:16;;;;;;;;;;;;;;;10.49;85.94;101943.38;4983479;28;19926;-75
2023/06/02 05:05:42;;;;;;;;;;;;;;;10.51;85.25;101946.66;4980545;28;19933;-75
2023/06/02 05:08:08;;;;;;;;;;;;;;;10.53;84.97;101955.25;4981121;28;19925;-75
2023/06/02 05:10:33;;;;;;;;;;;;;;;10.65;84.98;101956.00;4984452;28;19929;-76
2023/06/02 05:12:59;;;;;;;;;;;;;;;10.76;85.06;101959.66;4955166;28;19929;-74
2023/06/02 05:15:26;;;;;;;;;;;;;;;10.89;83.66;101972.78;4990261;28;20053;-74
2023/06/02 05:17:53;;;;;;;;;;;;;;;10.89;84.44;101971.97;4967967;28;20009;-74
2023/06/02 05:20:21;;;;;;;;;;;;;;;11.05;83.34;101973.84;4968260;28;19926;-75
2023/06/02 05:22:46;;;;;;;;;;;;;;;10.92;82.94;101980.34;4951776;28;19957;-75
2023/06/02 05:25:12;;;;;;;;;;;;;;;11.07;82.95;101977.09;4953024;28;20630;-76
2023/06/02 05:27:39;;;;;;;;;;;;;;;11.10;82.30;101986.53;4972396;28;20045;-75
2023/06/02 05:30:06;;;;;;;;;;;;;;;11.14;82.49;101991.16;4987493;28;20280;-75
2023/06/02 05:32:32;;;;;;;;;;;;;;;11.12;82.54;101997.84;5004888;28;20004;-75
2023/06/02 05:34:59;;;;;;;;;;;;;;;11.27;81.73;101995.41;5007025;28;20501;-76
2023/06/02 05:37:25;;;;;;;;;;;;;;;11.48;80.99;101988.47;4982861;28;20005;-75
2023/06/02 05:39:52;;;;;;;;;;;;;;;11.55;80.86;101989.13;4976165;28;19932;-76
2023/06/02 05:42:18;;;;;;;;;;;;;;;11.74;79.78;101981.63;4987122;28;19926;-75
2023/06/02 05:44:44;;;;;;;;;;;;;;;11.87;79.79;101983.19;4968688;28;19925;-76
2023/06/02 05:47:09;;;;;;;;;;;;;;;11.91;78.90;101989.66;4985692;28;19968;-76
2023/06/02 05:49:36;;;;;;;;;;;;;;;11.81;80.56;101995.72;4974064;28;20004;-76
2023/06/02 05:52:02;;;;;;;;;;;;;;;11.92;80.37;101994.81;4967067;28;20012;-76
2023/06/02 05:54:28;;;;;;;;;;;;;;;11.99;79.10;102000.00;4995109;28;19961;-76
2023/06/02 05:56:54;;;;;;;;;;;;;;;12.28;78.00;101992.56;4975407;28;19961;-76
2023/06/02 05:59:21;;;;;;;;;;;;;;;12.60;76.54;101992.66;4969616;28;19925;-76
2023/06/02 06:01:47;;;;;;;;;;;;;;;12.73;77.00;101991.44;4988029;28;20302;-76
2023/06/02 06:04:12;;;;;;;;;;;;;;;12.70;76.73;101995.44;4991195;28;19922;-76
2023/06/02 06:06:38;;;;;;;;;;;;;;;12.66;76.31;101999.69;4970870;28;19918;-76
2023/06/02 06:09:05;;;;;;;;;;;;;;;12.99;76.08;102003.25;4953371;28;19941;-75
2023/06/02 06:11:31;;;;;;;;;;;;;;;12.81;76.41;102010.63;5002267;28;20028;-75
2023/06/02 06:13:58;;;;;;;;;;;;;;;12.85;75.92;102005.53;5001185;28;19921;-74
2023/06/02 06:16:24;;;;;;;;;;;;;;;12.81;77.23;102013.31;4991836;28;20490;-75
2023/06/02 06:18:50;;;;;;;;;;;;;;;12.82;77.27;102014.13;4970066;28;20292;-74
2023/06/02 06:21:16;;;;;;;;;;;;;;;12.89;77.37;102008.56;4970827;28;19929;-75
2023/06/02 06:23:41;;;;;;;;;;;;;;;12.83;78.03;102010.38;4971364;28;19973;-75
2023/06/02 06:26:07;;;;;;;;;;;;;;;12.79;77.21;102009.25;4980538;28;19926;-75
2023/06/02 06:28:33;;;;;;;;;;;;;;;12.75;78.15;102008.94;4969473;28;19922;-75
2023/06/02 06:30:59;;;;;;;;;;;;;;;12.89;77.98;102013.94;4967278;28;19921;-74
2023/06/02 06:33:26;;;;;;;;;;;;;;;13.12;77.91;102016.28;5001790;28;20038;-74
2023/06/02 06:35:52;;;;;;;;;;;;;;;13.23;77.26;102020.72;5002986;28;20268;-75
2023/06/02 06:38:17;;;;;;;;;;;;;;;13.36;78.30;102035.63;4996902;28;19929;-73
2023/06/02 06:40:43;;;;;;;;;;;;;;;13.36;76.85;102023.00;4967452;28;19933;-75
2023/06/02 06:43:09;;;;;;;;;;;;;;;13.32;76.87;102026.44;4983942;28;20419;-74
2023/06/02 06:45:41;;;;;;;;;;;;;;;13.38;76.43;102028.91;4983909;28;19922;-75
2023/06/02 06:48:07;;;;;;;;;;;;;;;13.49;75.90;102026.31;4988594;28;20431;-75
2023/06/02 06:50:33;;;;;;;;;;;;;;;13.55;76.08;102028.00;5003167;28;19929;-74
2023/06/02 06:53:00;;;;;;;;;;;;;;;13.42;76.83;102036.50;4972104;28;19922;-74
2023/06/02 06:55:26;;;;;;;;;;;;;;;13.45;77.44;102028.69;4971307;28;19929;-75
2023/06/02 06:57:52;;;;;;;;;;;;;;;13.56;77.69;102032.28;4972904;28;19922;-74
2023/06/02 07:00:17;;;;;;;;;;;;;;;13.50;76.82;102028.75;4986181;28;19922;-74
2023/06/02 07:02:44;;;;;;;;;;;;;;;13.51;76.66;102043.81;4984717;28;20437;-77
2023/06/02 07:05:09;;;;;;;;;;;;;;;13.40;77.01;102039.41;4989143;28;19929;-75
2023/06/02 07:07:35;;;;;;;;;;;;;;;13.59;77.68;102043.34;4972385;28;19922;-74
2023/06/02 07:10:01;;;;;;;;;;;;;;;13.76;76.69;102056.66;4975275;28;20004;-75
2023/06/02 07:12:26;;;;;;;;;;;;;;;14.03;75.91;102061.16;4970406;28;19965;-74
2023/06/02 07:14:52;;;;;;;;;;;;;;;13.96;75.40;102057.88;4965420;28;19922;-74
2023/06/02 07:17:18;;;;;;;;;;;;;;;14.07;75.35;102073.00;4974330;28;19925;-74
2023/06/02 07:19:44;;;;;;;;;;;;;;;13.60;76.63;102069.19;4964067;28;19962;-75
2023/06/02 07:22:10;;;;;;;;;;;;;;;13.62;76.81;102071.66;4970693;28;19961;-74
2023/06/02 07:24:35;;;;;;;;;;;;;;;13.71;76.93;102075.47;4970835;28;20377;-75
2023/06/02 07:27:02;;;;;;;;;;;;;;;13.56;76.77;102086.13;4956087;28;20535;-74
2023/06/02 07:29:27;;;;;;;;;;;;;;;13.47;76.99;102090.34;4968142;28;19922;-75
2023/06/02 07:31:53;;;;;;;;;;;;;;;13.27;78.04;102085.56;4973025;28;19917;-75
2023/06/02 07:34:18;;;;;;;;;;;;;;;13.41;77.69;102091.34;4950762;28;20394;-75
2023/06/02 07:36:46;;;;;;;;;;;;;;;13.41;78.03;102097.53;4934256;28;19918;-74
2023/06/02 07:39:12;;;;;;;;;;;;;;;13.28;78.15;102098.00;4981855;28;19922;-74
2023/06/02 07:41:38;;;;;;;;;;;;;;;13.58;77.43;102092.06;4969369;28;19926;-76
2023/06/02 07:44:03;;;;;;;;;;;;;;;13.45;77.64;102103.25;4932318;28;19969;-73
2023/06/02 07:46:29;;;;;;;;;;;;;;;13.76;76.41;102098.94;4969211;28;19919;-74
2023/06/02 07:48:54;;;;;;;;;;;;;;;14.07;74.82;102100.75;4953463;28;19922;-76
2023/06/02 07:51:20;;;;;;;;;;;;;;;14.44;73.12;102089.13;4954633;28;20430;-73
2023/06/02 07:53:45;;;;;;;;;;;;;;;14.89;71.83;102091.19;4952234;28;19950;-74
2023/06/02 07:56:11;;;;;;;;;;;;;;;15.11;71.41;102092.88;4950403;28;20351;-74
2023/06/02 07:58:36;;;;;;;;;;;;;;;14.92;70.36;102096.06;4972415;28;19973;-74
2023/06/02 08:01:02;;;;;;;;;;;;;;;14.99;70.61;102101.22;4971880;28;20439;-74
2023/06/02 08:03:27;;;;;;;;;;;;;;;14.98;69.74;102095.00;4949439;28;19926;-74
2023/06/02 08:05:53;;;;;;;;;;;;;;;14.72;70.83;102101.41;4961129;28;19926;-75
2023/06/02 08:08:18;;;;;;;;;;;;;;;15.03;70.06;102105.78;4950324;28;19926;-73
2023/06/02 08:10:44;;;;;;;;;;;;;;;14.92;69.71;102096.06;4969594;28;19925;-74
2023/06/02 08:13:11;;;;;;;;;;;;;;;15.16;69.85;102095.56;4970114;28;19921;-76
2023/06/02 08:15:37;;;;;;;;;;;;;;;15.10;69.79;102102.84;4986116;28;19925;-74
2023/06/02 08:18:02;;;;;;;;;;;;;;;14.98;69.30;102105.81;4947357;28;19941;-74
2023/06/02 08:20:28;;;;;;;;;;;;;;;14.95;69.49;102106.31;4951731;28;19923;-74
2023/06/02 08:22:55;;;;;;;;;;;;;;;15.02;70.91;102108.75;4964462;28;19977;-75
2023/06/02 08:25:21;;;;;;;;;;;;;;;15.29;68.54;102105.84;4963984;28;19952;-73
2023/06/02 08:27:47;;;;;;;;;;;;;;;15.24;69.04;102106.66;4984768;28;19919;-76
2023/06/02 08:30:12;;;;;;;;;;;;;;;15.32;68.13;102110.72;4977195;28;20379;-75
2023/06/02 08:32:38;;;;;;;;;;;;;;;15.29;68.15;102105.84;4971911;28;19925;-76
2023/06/02 08:35:04;;;;;;;;;;;;;;;15.00;68.74;102113.63;4957292;28;19991;-76
2023/06/02 08:37:31;;;;;;;;;;;;;;;15.11;69.61;102114.47;4983556;28;19925;-76
2023/06/02 08:39:57;;;;;;;;;;;;;;;14.84;68.54;102109.25;4971583;28;19922;-75
2023/06/02 08:42:25;;;;;;;;;;;;;;;14.68;70.64;102121.84;5000075;28;20303;-75
2023/06/02 08:44:51;;;;;;;;;;;;;;;14.37;71.26;102123.59;4958613;28;19919;-76
2023/06/02 08:47:22;;;;;;;;;;;;;;;14.26;71.04;102130.78;5006877;28;19919;-76
2023/06/02 08:49:48;;;;;;;;;;;;;;;14.17;71.27;102129.66;4991488;28;19950;-77
2023/06/02 08:52:23;;;;;;;;;;;;;;;14.23;71.25;102139.41;4972855;28;19981;-74
2023/06/02 08:54:49;;;;;;;;;;;;;;;14.14;71.47;102151.72;4987636;28;19945;-74
2023/06/02 08:57:16;;;;;;;;;;;;;;;14.33;70.94;102138.63;4973591;28;20701;-75
2023/06/02 08:59:45;;;;;;;;;;;;;;;14.68;69.76;102138.84;5005226;28;19945;-73
2023/06/02 09:02:11;;;;;;;;;;;;;;;14.64;71.11;102140.47;5004680;28;19926;-74
2023/06/02 09:04:36;;;;;;;;;;;;;;;14.94;70.53;102142.47;4970338;28;19919;-76
2023/06/02 09:07:11;;;;;;;;;;;;;;;15.25;67.78;102142.56;4986181;28;19926;-76
2023/06/02 09:09:41;;;;;;;;;;;;;;;15.22;67.36;102141.19;4969972;28;19945;-74
2023/06/02 09:12:06;;;;;;;;;;;;;;;15.19;67.47;102140.94;4972169;28;19965;-74
2023/06/02 09:14:32;;;;;;;;;;;;;;;15.05;67.44;102147.91;4970896;28;20375;-74
2023/06/02 09:16:57;;;;;;;;;;;;;;;15.16;68.49;102149.53;5007736;28;19925;-75
2023/06/02 09:19:23;;;;;;;;;;;;;;;15.15;67.07;102147.91;4974653;28;20008;-73
2023/06/02 09:21:48;;;;;;;;;;;;;;;15.12;66.77;102153.84;4993518;28;20672;-74
2023/06/02 09:24:28;;;;;;;;;;;;;;;15.35;67.84;102156.06;4972366;28;19968;-75
2023/06/02 09:26:54;;;;;;;;;;;;;;;15.74;66.10;102150.19;4949613;28;20444;-74
2023/06/02 09:29:20;;;;;;;;;;;;;;;16.05;64.70;102150.97;5021507;28;19961;-74
2023/06/02 09:31:51;;;;;;;;;;;;;;;16.35;63.32;102155.53;4969086;28;19922;-76
2023/06/02 09:34:17;;;;;;;;;;;;;;;16.84;62.50;102157.56;4984452;28;19930;-75
2023/06/02 09:36:43;;;;;;;;;;;;;;;17.08;60.46;102147.72;4969138;28;19929;-75
2023/06/02 09:39:12;;;;;;;;;;;;;;;18.19;59.22;102145.25;5002929;28;19941;-75
2023/06/02 09:41:38;;;;;;;;;;;;;;;18.72;58.00;102155.28;4968969;28;20376;-76
2023/06/02 09:44:11;;;;;;;;;;;;;;;18.24;55.28;102155.25;4990976;28;19968;-76
2023/06/02 09:46:41;;;;;;;;;;;;;;;17.79;56.40;102162.69;4991288;28;19929;-75
2023/06/02 09:49:07;;;;;;;;;;;;;;;17.43;57.77;102162.13;4976957;28;19981;-74
2023/06/02 09:51:33;;;;;;;;;;;;;;;16.88;59.09;102167.56;5003423;28;19922;-73
2023/06/02 09:53:59;;;;;;;;;;;;;;;17.08;58.49;102172.09;4986925;28;19924;-75
2023/06/02 09:56:27;;;;;;;;;;;;;;;17.37;58.10;102171.38;5002687;28;19922;-76
2023/06/02 09:58:53;;;;;;;;;;;;;;;17.41;56.67;102156.19;4975582;28;20430;-75
2023/06/02 10:01:20;;;;;;;;;;;;;;;17.26;58.64;102167.09;4988097;28;19974;-76
2023/06/02 10:03:45;;;;;;;;;;;;;;;16.78;58.89;102164.09;4986368;28;19965;-76
2023/06/02 10:06:19;;;;;;;;;;;;;;;16.84;59.07;102169.19;4974013;28;20359;-73
2023/06/02 10:08:48;;;;;;;;;;;;;;;16.82;58.11;102181.41;4969512;28;20340;-76
2023/06/02 10:11:22;;;;;;;;;;;;;;;16.62;57.51;102183.06;4966750;28;20438;-73
2023/06/02 10:14:08;;;;;;;;;;;;;;;16.57;58.12;102180.34;4967372;28;19918;-75
2023/06/02 10:16:33;;;;;;;;;;;;;;;16.50;58.32;102171.72;4998834;28;19994;-75
2023/06/02 10:19:18;;;;;;;;;;;;;;;16.62;58.15;102183.06;5001493;28;19934;-74
2023/06/02 10:21:53;;;;;;;;;;;;;;;16.85;58.47;102175.41;5001519;28;19973;-74
2023/06/02 10:24:19;;;;;;;;;;;;;;;17.22;57.45;102185.81;4974121;28;19922;-73
2023/06/02 10:26:48;;;;;;;;;;;;;;;16.72;55.17;102181.41;4975404;28;19928;-73
2023/06/02 10:29:14;;;;;;;;;;;;;;;17.17;54.46;102167.69;4983687;28;20082;-74
2023/06/02 10:31:41;;;;;;;;;;;;;;;16.95;54.64;102169.19;4987094;28;19922;-74
2023/06/02 10:34:07;;;;;;;;;;;;;;;17.34;54.20;102170.06;4970910;28;19922;-75
2023/06/02 10:36:51;;;;;;;;;;;;;;;18.05;52.18;102171.41;4983803;28;19926;-75
2023/06/02 10:39:35;;;;;;;;;;;;;;;17.64;52.93;102174.44;5004662;28;19923;-75
2023/06/02 10:42:04;;;;;;;;;;;;;;;17.72;53.04;102167.63;5004386;28;19929;-75
2023/06/02 10:44:31;;;;;;;;;;;;;;;17.59;53.24;102179.88;4986162;28;20394;-74
2023/06/02 10:47:16;;;;;;;;;;;;;;;17.87;52.22;102177.53;4970166;28;19941;-75
2023/06/02 10:49:55;;;;;;;;;;;;;;;18.90;50.37;102180.81;4966694;28;19922;-75
2023/06/02 10:52:24;;;;;;;;;;;;;;;19.52;48.73;102171.56;4991259;28;19929;-75
2023/06/02 10:55:10;;;;;;;;;;;;;;;19.49;48.09;102179.47;4970883;28;21515;-75
2023/06/02 10:57:52;;;;;;;;;;;;;;;18.62;49.02;102174.34;4972688;28;19977;-75
2023/06/02 11:00:44;;;;;;;;;;;;;;;18.49;49.21;102175.84;4983097;28;19918;-74
2023/06/02 11:03:17;;;;;;;;;;;;;;;19.52;47.36;102181.63;5003034;28;19930;-76
2023/06/02 11:05:43;;;;;;;;;;;;;;;20.07;45.33;102166.34;4983321;28;19937;-73
2023/06/02 11:08:12;;;;;;;;;;;;;;;19.99;46.82;102179.81;4966991;28;19922;-74
2023/06/02 11:10:48;;;;;;;;;;;;;;;19.30;45.70;102184.91;4972086;28;19922;-74
2023/06/02 11:13:21;;;;;;;;;;;;;;;19.88;45.86;102177.25;4982882;28;19918;-73
2023/06/02 11:15:57;;;;;;;;;;;;;;;19.11;45.03;102186.84;4990002;28;19922;-74
2023/06/02 11:18:23;;;;;;;;;;;;;;;20.00;44.04;102181.44;4965131;28;19922;-75
2023/06/02 11:20:50;;;;;;;;;;;;;;;21.01;43.19;102183.31;5000956;28;19929;-77
2023/06/02 11:23:19;;;;;;;;;;;;;;;21.77;40.73;102181.59;4982438;28;20060;-78
2023/06/02 11:25:45;;;;;;;;;;;;;;;20.80;42.58;102185.66;4967665;28;20538;-75
2023/06/02 11:28:17;;;;;;;;;;;;;;;21.59;40.79;102182.56;5002624;28;19926;-75
2023/06/02 11:30:42;;;;;;;;;;;;;;;21.53;41.77;102179.94;4964942;28;20029;-76
2023/06/02 11:33:08;;;;;;;;;;;;;;;20.51;40.66;102194.13;5000229;28;19922;-75
2023/06/02 11:35:34;;;;;;;;;;;;;;;20.02;40.87;102190.09;4997782;28;20418;-74
2023/06/02 11:38:04;;;;;;;;;;;;;;;20.27;42.08;102181.47;4967892;28;19981;-77
2023/06/02 11:40:30;;;;;;;;;;;;;;;20.20;39.60;102185.69;4966751;28;20303;-74
2023/06/02 11:42:55;;;;;;;;;;;;;;;19.59;40.79;102185.59;4985118;28;19926;-80
2023/06/02 11:45:22;;;;;;;;;;;;;;;19.31;42.02;102184.66;4952935;28;19922;-76
2023/06/02 11:47:55;;;;;;;;;;;;;;;18.66;41.26;102183.53;4985341;28;19918;-75
2023/06/02 11:50:20;;;;;;;;;;;;;;;20.37;38.59;102184.00;5004492;28;21080;-75
2023/06/02 11:52:46;;;;;;;;;;;;;;;20.21;41.21;102185.41;5003044;28;19974;-78
2023/06/02 11:55:12;;;;;;;;;;;;;;;20.62;42.28;102190.91;4954596;28;19922;-76
2023/06/02 11:57:37;;;;;;;;;;;;;;;19.97;38.40;102193.69;4996715;28;20347;-77
2023/06/02 12:00:09;;;;;;;;;;;;;;;19.40;40.28;102194.84;4969723;28;20348;-75
2023/06/02 12:02:36;;;;;;;;;;;;;;;19.24;41.96;102196.97;4984777;28;19925;-75
2023/06/02 12:05:02;;;;;;;;;;;;;;;18.73;42.11;102203.03;4989642;28;20020;-74
2023/06/02 12:07:28;;;;;;;;;;;;;;;18.77;42.16;102196.75;4960853;28;20037;-75
2023/06/02 12:09:53;;;;;;;;;;;;;;;18.16;42.05;102199.25;4969023;28;19996;-75
2023/06/02 12:12:19;;;;;;;;;;;;;;;18.50;41.98;102201.91;4986280;28;20062;-74
2023/06/02 12:14:44;;;;;;;;;;;;;;;18.39;42.02;102203.09;5002881;28;19929;-76
2023/06/02 12:17:10;;;;;;;;;;;;;;;18.85;42.44;102202.63;4971698;28;19929;-75
2023/06/02 12:19:36;;;;;;;;;;;;;;;18.72;39.81;102191.38;4983587;28;19923;-76
2023/06/02 12:22:10;;;;;;;;;;;;;;;18.78;41.36;102194.84;4973634;28;19926;-74
2023/06/02 12:24:39;;;;;;;;;;;;;;;19.74;39.79;102197.34;4967813;28;19944;-75
2023/06/02 12:27:06;;;;;;;;;;;;;;;19.50;39.19;102190.06;4988293;28;19922;-77
2023/06/02 12:29:32;;;;;;;;;;;;;;;18.54;40.17;102194.78;4974996;28;19976;-75
2023/06/02 12:31:57;;;;;;;;;;;;;;;19.08;41.38;102207.22;5005768;28;19965;-75
2023/06/02 12:34:23;;;;;;;;;;;;;;;19.88;39.24;102199.00;4952075;28;19961;-74
2023/06/02 12:36:49;;;;;;;;;;;;;;;20.05;38.58;102200.34;5006827;28;19929;-74
2023/06/02 12:39:14;;;;;;;;;;;;;;;19.53;40.54;102199.53;5006408;28;19918;-74
2023/06/02 12:41:40;;;;;;;;;;;;;;;19.75;38.26;102197.03;4972923;28;19929;-73